Terminal Aerodrome Forecast
Issued by NWS

Home | Current Version | Previous Version | Text Only | Print | Product List | Glossary On
Versions: 1 2 3 4 5 6 7 8 9 10 11 12 13 14
000
FTUS42 TJSJ 190100 AAA
TAFJSJ
TAF AMD
TJSJ 190157Z 1902/1924 07005KT P6SM VCTS SCT022CB BKN050
      TEMPO 1902/1904 5SM TSRA BR BKN025CB
     FM191300 08012KT P6SM VCSH SCT025 SCT040 SCT070
     FM192200 10006KT P6SM SCT030 SCT070=

USA.gov is the U.S. government's official web portal to all federal, state and local government web resources and services.